createdAt,value
2022-08-12T00:01:11.062Z,3.20
2022-08-12T00:05:28.202Z,2.83
2022-08-12T00:09:44.135Z,2.97
2022-08-12T00:14:00.032Z,2.77
2022-08-12T00:18:15.970Z,3.70
2022-08-12T00:22:33.077Z,3.10
2022-08-12T00:26:49.494Z,3.30
2022-08-12T00:31:05.627Z,3.33
2022-08-12T00:35:24.377Z,3.10
2022-08-12T00:39:42.147Z,3.23
2022-08-12T00:43:42.963Z,3.20
2022-08-12T00:47:41.122Z,3.10
2022-08-12T00:51:59.073Z,3.00
2022-08-12T00:55:58.667Z,2.87
2022-08-12T01:00:11.443Z,3.17
2022-08-12T01:04:29.844Z,3.40
2022-08-12T01:08:48.044Z,3.10
2022-08-12T01:12:46.186Z,3.30
2022-08-12T01:16:43.870Z,3.50
2022-08-12T01:20:52.480Z,3.67
2022-08-12T01:25:11.863Z,3.80
2022-08-12T01:29:15.626Z,3.40
2022-08-12T01:33:21.911Z,3.53
2022-08-12T01:37:24.574Z,3.47
2022-08-12T01:41:26.073Z,3.70
2022-08-12T01:45:26.675Z,3.40
2022-08-12T01:49:48.678Z,3.80
2022-08-12T01:54:14.872Z,3.53
2022-08-12T01:58:32.013Z,3.43
2022-08-12T02:03:03.953Z,3.53
2022-08-12T02:07:37.845Z,3.60
2022-08-12T02:12:06.111Z,3.90
2022-08-12T02:16:46.732Z,4.00
2022-08-12T02:21:07.414Z,3.80
2022-08-12T02:25:13.562Z,3.60
2022-08-12T02:29:13.418Z,3.97
2022-08-12T02:33:12.136Z,4.10
2022-08-12T02:37:14.005Z,3.93
2022-08-12T02:41:17.134Z,4.20
2022-08-12T02:45:26.019Z,4.10
2022-08-12T02:49:35.065Z,4.37
2022-08-12T02:53:34.587Z,4.10
2022-08-12T02:57:32.954Z,4.07
2022-08-12T03:01:36.290Z,3.83
2022-08-12T03:05:52.483Z,3.80
2022-08-12T03:10:03.711Z,3.90
2022-08-12T03:14:03.875Z,3.90
2022-08-12T03:18:24.911Z,4.40
2022-08-12T03:22:27.097Z,4.50
2022-08-12T03:26:28.008Z,4.57
2022-08-12T03:30:32.720Z,4.00
2022-08-12T03:34:34.013Z,4.10
2022-08-12T03:38:37.366Z,4.77
2022-08-12T03:42:42.929Z,4.13
2022-08-12T03:47:04.057Z,4.00
2022-08-12T03:51:21.206Z,4.23
2022-08-12T03:55:36.530Z,4.40
2022-08-12T03:59:51.934Z,4.17
2022-08-12T04:03:53.343Z,4.00
2022-08-12T04:07:58.222Z,4.17
2022-08-12T04:12:14.422Z,4.10
2022-08-12T04:16:13.682Z,4.20
2022-08-12T04:20:14.432Z,4.00
2022-08-12T04:24:12.551Z,3.93
2022-08-12T04:28:13.539Z,4.27
2022-08-12T04:32:11.641Z,3.80
2022-08-12T04:36:09.516Z,4.10
2022-08-12T04:40:11.283Z,3.67
2022-08-12T04:44:10.416Z,3.97
2022-08-12T04:48:07.760Z,3.90
2022-08-12T04:52:05.937Z,3.00
2022-08-12T04:56:03.057Z,3.23
2022-08-12T05:00:00.154Z,4.37
2022-08-12T05:03:58.929Z,3.07
2022-08-12T05:07:55.976Z,2.97
2022-08-12T05:11:54.076Z,3.20
2022-08-12T05:16:05.070Z,3.07
2022-08-12T05:20:03.113Z,2.80
2022-08-12T05:24:01.584Z,2.63
2022-08-12T05:28:00.642Z,2.87
2022-08-12T05:31:58.198Z,3.10
2022-08-12T05:35:55.289Z,3.20
2022-08-12T05:39:52.409Z,3.30
2022-08-12T05:43:56.748Z,2.93
2022-08-12T05:47:54.339Z,3.10
2022-08-12T05:51:51.826Z,3.00
2022-08-12T05:55:52.873Z,2.83
2022-08-12T05:59:49.864Z,2.87
2022-08-12T06:03:47.032Z,2.67
2022-08-12T06:08:01.955Z,2.70
2022-08-12T06:12:05.417Z,2.67
2022-08-12T06:16:03.902Z,2.43
2022-08-12T06:20:26.831Z,2.80
2022-08-12T06:24:24.327Z,2.50
2022-08-12T06:28:22.730Z,2.40
2022-08-12T06:32:19.823Z,2.72
2022-08-12T06:36:30.091Z,2.58
2022-08-12T06:40:50.423Z,2.50
2022-08-12T06:44:47.463Z,2.47
2022-08-12T06:48:44.518Z,2.30
2022-08-12T06:52:43.679Z,2.42
2022-08-12T06:57:02.885Z,2.20
2022-08-12T07:01:00.260Z,2.10
2022-08-12T07:04:57.564Z,2.10
2022-08-12T07:08:54.543Z,2.30
2022-08-12T07:12:54.964Z,2.10
2022-08-12T07:16:56.833Z,2.10
2022-08-12T07:20:54.146Z,2.00
2022-08-12T07:25:11.272Z,2.25
2022-08-12T07:29:09.961Z,1.98
2022-08-12T07:33:09.749Z,2.00
2022-08-12T07:37:06.756Z,2.33
2022-08-12T07:41:14.511Z,2.00
2022-08-12T07:45:13.914Z,1.95
2022-08-12T07:49:19.705Z,1.85
2022-08-12T07:53:16.913Z,1.77
2022-08-12T07:57:15.597Z,1.65
2022-08-12T08:01:17.644Z,1.90
2022-08-12T08:05:15.591Z,1.70
2022-08-12T08:09:15.875Z,1.80
2022-08-12T08:13:13.755Z,1.80
2022-08-12T08:17:11.610Z,1.60
2022-08-12T08:21:11.212Z,1.98
2022-08-12T08:25:34.744Z,2.10
2022-08-12T08:29:26.165Z,2.10
2022-08-12T08:34:01.593Z,1.70
2022-08-12T08:37:46.304Z,1.60
2022-08-12T08:42:19.374Z,1.80
2022-08-12T08:46:17.046Z,2.10
2022-08-12T08:50:15.339Z,1.70
2022-08-12T08:54:13.310Z,1.80
2022-08-12T08:58:11.672Z,1.60
2022-08-12T09:02:09.250Z,1.50
2022-08-12T09:06:07.267Z,1.65
2022-08-12T09:10:09.174Z,1.77
2022-08-12T09:14:29.260Z,1.60
2022-08-12T09:18:33.374Z,1.80
2022-08-12T09:22:30.904Z,1.63
2022-08-12T09:26:33.806Z,1.67
2022-08-12T09:30:41.048Z,1.60
2022-08-12T09:34:42.550Z,1.38
2022-08-12T09:38:58.490Z,1.40
2022-08-12T09:43:18.675Z,1.30
2022-08-12T09:47:16.521Z,1.38
2022-08-12T09:51:21.659Z,1.30
2022-08-12T09:56:05.995Z,1.45
2022-08-12T10:00:17.240Z,1.40
2022-08-12T10:04:04.151Z,1.30
2022-08-12T10:08:04.974Z,1.20
2022-08-12T10:12:32.750Z,1.40
2022-08-12T10:16:38.623Z,1.50
2022-08-12T10:20:37.480Z,1.65
2022-08-12T10:24:34.613Z,1.50
2022-08-12T10:28:56.236Z,1.50
2022-08-12T10:33:00.239Z,1.50
2022-08-12T10:37:22.918Z,1.40
2022-08-12T10:41:57.347Z,1.40
2022-08-12T10:45:58.292Z,1.60
2022-08-12T10:50:05.641Z,1.50
2022-08-12T10:54:14.351Z,1.35
2022-08-12T10:58:14.422Z,1.45
2022-08-12T11:04:32.099Z,1.70
2022-08-12T11:07:09.657Z,1.48
2022-08-12T11:11:13.217Z,1.40
2022-08-12T11:15:18.620Z,1.40
2022-08-12T11:19:18.090Z,1.45
2022-08-12T11:23:25.405Z,1.50
2022-08-12T11:27:34.239Z,1.50
2022-08-12T11:31:56.287Z,1.70
2022-08-12T11:35:53.128Z,1.85
2022-08-12T11:44:36.350Z,1.70
2022-08-12T11:48:27.077Z,1.70
2022-08-12T11:52:55.523Z,1.60
2022-08-12T11:56:42.894Z,1.52
2022-08-12T12:05:06.972Z,1.80
2022-08-12T12:09:04.073Z,1.50
2022-08-12T12:13:05.173Z,1.75
2022-08-12T12:17:19.917Z,1.80
2022-08-12T12:21:30.019Z,1.90
2022-08-12T12:26:07.063Z,1.73
2022-08-12T12:30:18.138Z,1.80
2022-08-12T12:34:30.238Z,1.52
2022-08-12T12:38:28.102Z,1.70
2022-08-12T12:42:42.843Z,1.60
2022-08-12T12:46:42.095Z,1.75
2022-08-12T12:51:13.978Z,1.55
2022-08-12T12:55:36.009Z,1.40
2022-08-12T12:59:35.000Z,1.40
2022-08-12T13:03:54.244Z,1.45
2022-08-12T13:08:00.640Z,1.40
2022-08-12T13:12:01.082Z,1.40
2022-08-12T13:16:01.761Z,1.42
2022-08-12T13:20:06.614Z,1.48
2022-08-12T13:24:10.144Z,1.40
2022-08-12T13:28:09.630Z,1.40
2022-08-12T13:32:19.576Z,1.80
2022-08-12T13:36:24.270Z,1.50
2022-08-12T13:40:33.964Z,1.40
2022-08-12T13:44:31.354Z,1.70
2022-08-12T13:48:30.574Z,1.50
2022-08-12T13:52:27.593Z,1.73
2022-08-12T13:56:31.493Z,1.50
2022-08-12T14:00:38.981Z,1.45
2022-08-12T14:04:37.205Z,1.38
2022-08-12T14:08:34.795Z,1.17
2022-08-12T14:12:40.216Z,1.30
2022-08-12T14:16:52.073Z,1.30
2022-08-12T14:20:58.460Z,1.13
2022-08-12T14:24:58.379Z,1.60
2022-08-12T14:28:57.735Z,1.58
2022-08-12T14:33:03.242Z,1.50
2022-08-12T14:37:02.430Z,1.60
2022-08-12T14:41:07.497Z,1.60
2022-08-12T14:45:08.041Z,1.60
2022-08-12T14:49:27.511Z,1.45
2022-08-12T14:57:57.939Z,1.55
2022-08-12T15:01:55.557Z,1.50
2022-08-12T15:06:05.564Z,1.63
2022-08-12T15:10:04.332Z,1.40
2022-08-12T15:14:01.722Z,1.40
2022-08-12T15:18:06.965Z,1.88
2022-08-12T15:22:35.633Z,1.50
2022-08-12T15:26:28.310Z,1.60
2022-08-12T15:30:30.281Z,1.70
2022-08-12T15:34:30.889Z,1.70
2022-08-12T15:38:28.224Z,1.65
2022-08-12T15:42:26.485Z,1.52
2022-08-12T15:46:27.647Z,1.50
2022-08-12T15:50:29.657Z,1.60
2022-08-12T15:54:34.057Z,1.60
2022-08-12T15:58:33.724Z,1.50
2022-08-12T16:02:40.771Z,1.67
2022-08-12T16:07:05.625Z,1.70
2022-08-12T16:10:57.948Z,1.80
2022-08-12T16:14:57.497Z,1.80
2022-08-12T16:19:00.820Z,2.65
2022-08-12T16:23:26.322Z,3.75
2022-08-12T16:27:25.662Z,3.63
2022-08-12T16:31:24.097Z,2.65
2022-08-12T16:35:21.360Z,3.13
2022-08-12T16:39:27.818Z,2.50
2022-08-12T16:43:30.374Z,2.42
2022-08-12T16:47:58.214Z,5.47
2022-08-12T16:51:50.285Z,10.43
2022-08-12T16:55:50.739Z,4.50
2022-08-12T16:59:54.146Z,2.13
2022-08-12T17:04:09.085Z,1.77
2022-08-12T17:08:09.690Z,2.00
2022-08-12T17:12:07.998Z,1.92
2022-08-12T17:16:10.701Z,3.38
2022-08-12T17:20:34.674Z,1.90
2022-08-12T17:24:44.078Z,2.00
2022-08-12T17:28:53.776Z,2.10
2022-08-12T17:32:53.473Z,2.40
2022-08-12T17:36:51.650Z,3.08
2022-08-12T17:40:49.114Z,3.85
2022-08-12T17:44:49.119Z,4.10
2022-08-12T17:48:55.051Z,4.32
2022-08-12T17:53:00.468Z,2.85
2022-08-12T17:57:01.337Z,2.47
2022-08-12T18:01:02.270Z,2.55
2022-08-12T18:05:09.361Z,2.20
2022-08-12T18:09:08.574Z,1.90
2022-08-12T18:13:06.977Z,3.05
2022-08-12T18:17:08.253Z,2.10
2022-08-12T18:21:09.793Z,2.38
2022-08-12T18:25:18.661Z,2.17
2022-08-12T18:29:42.252Z,2.58
2022-08-12T18:33:45.670Z,3.63
2022-08-12T18:37:43.210Z,3.97
2022-08-12T18:41:43.386Z,4.68
2022-08-12T18:45:57.034Z,3.35
2022-08-12T18:49:57.380Z,2.90
2022-08-12T18:54:05.293Z,2.80
2022-08-12T18:58:10.107Z,1.90
2022-08-12T19:02:19.499Z,1.42
2022-08-12T19:06:19.876Z,1.58
2022-08-12T19:10:23.034Z,1.50
2022-08-12T19:14:32.814Z,1.60
2022-08-12T19:18:32.357Z,1.52
2022-08-12T19:22:35.277Z,1.40
2022-08-12T19:26:35.180Z,1.48
2022-08-12T19:30:54.499Z,1.38
2022-08-12T19:36:06.632Z,1.65
2022-08-12T19:39:23.143Z,1.50
2022-08-12T19:43:26.837Z,1.63
2022-08-12T19:47:46.068Z,1.88
2022-08-12T19:51:49.595Z,2.58
2022-08-12T19:55:52.856Z,3.38
2022-08-12T20:00:04.099Z,2.40
2022-08-12T20:04:03.275Z,2.10
2022-08-12T20:08:01.079Z,2.08
2022-08-12T20:12:11.962Z,2.30
2022-08-12T20:16:45.492Z,2.00
2022-08-12T20:20:30.569Z,3.00
2022-08-12T20:24:37.592Z,2.10
2022-08-12T20:28:34.860Z,2.40
2022-08-12T20:32:37.606Z,2.05
2022-08-12T20:36:45.395Z,1.95
2022-08-12T20:40:47.807Z,2.75
2022-08-12T20:44:45.336Z,3.13
2022-08-12T20:48:44.359Z,3.03
2022-08-12T20:52:45.306Z,2.78
2022-08-12T20:56:43.078Z,3.00
2022-08-12T21:00:43.623Z,2.80
2022-08-12T21:04:59.239Z,2.83
2022-08-12T21:08:59.228Z,2.85
2022-08-12T21:12:57.341Z,2.85
2022-08-12T21:16:55.184Z,4.07
2022-08-12T21:20:54.565Z,7.55
2022-08-12T21:24:53.090Z,6.07
2022-08-12T21:28:56.780Z,6.60
2022-08-12T21:32:56.571Z,5.70
2022-08-12T21:36:53.953Z,4.63
2022-08-12T21:40:53.851Z,3.75
2022-08-12T21:45:46.962Z,3.40
2022-08-12T21:49:16.460Z,3.22
2022-08-12T21:54:07.889Z,4.80
2022-08-12T21:57:54.640Z,4.78
2022-08-12T22:01:59.586Z,3.90
2022-08-12T22:06:20.289Z,3.70
2022-08-12T22:10:28.541Z,3.85
2022-08-12T22:14:28.995Z,4.43
2022-08-12T22:18:27.473Z,4.30
2022-08-12T22:22:25.389Z,4.00
2022-08-12T22:26:37.593Z,4.68
2022-08-12T22:30:53.521Z,4.65
2022-08-12T22:35:10.445Z,3.30
2022-08-12T22:39:19.368Z,2.70
2022-08-12T22:43:36.382Z,2.83
2022-08-12T22:47:55.861Z,2.57
2022-08-12T22:52:00.256Z,2.70
2022-08-12T22:56:06.697Z,2.80
2022-08-12T23:00:09.063Z,2.40
2022-08-12T23:04:28.530Z,2.83
2022-08-12T23:08:31.864Z,3.30
2022-08-12T23:12:49.099Z,3.20
2022-08-12T23:16:47.249Z,3.73
2022-08-12T23:20:45.071Z,3.30
2022-08-12T23:24:53.669Z,3.63
2022-08-12T23:29:26.045Z,3.53
2022-08-12T23:34:00.682Z,3.40
2022-08-12T23:37:47.577Z,3.60
2022-08-12T23:41:56.307Z,4.40
2022-08-12T23:46:19.497Z,3.47
2022-08-12T23:50:17.174Z,2.80
2022-08-12T23:54:38.773Z,3.27
2022-08-12T23:58:37.022Z,3.00
